sensor_id;sensor_type;location;lat;lon;timestamp;temperature;humidity
66013;DHT22;52783;50.502;8.190;2022-10-31T00:02:23;12.60;99.90
66013;DHT22;52783;50.502;8.190;2022-10-31T00:04:49;12.50;99.90
66013;DHT22;52783;50.502;8.190;2022-10-31T00:07:14;12.50;99.90
66013;DHT22;52783;50.502;8.190;2022-10-31T00:09:40;12.50;99.90
66013;DHT22;52783;50.502;8.190;2022-10-31T00:12:05;12.50;99.90
66013;DHT22;52783;50.502;8.190;2022-10-31T00:14:31;12.50;99.90
66013;DHT22;52783;50.502;8.190;2022-10-31T00:16:56;12.50;99.90
66013;DHT22;52783;50.502;8.190;2022-10-31T00:19:22;12.40;99.90
66013;DHT22;52783;50.502;8.190;2022-10-31T00:21:47;12.40;99.90
66013;DHT22;52783;50.502;8.190;2022-10-31T00:24:13;12.40;99.90
66013;DHT22;52783;50.502;8.190;2022-10-31T00:26:38;12.40;99.90
66013;DHT22;52783;50.502;8.190;2022-10-31T00:29:04;12.30;99.90
66013;DHT22;52783;50.502;8.190;2022-10-31T00:31:30;12.30;99.90
66013;DHT22;52783;50.502;8.190;2022-10-31T00:33:56;12.30;99.90
66013;DHT22;52783;50.502;8.190;2022-10-31T00:36:22;12.40;99.90
66013;DHT22;52783;50.502;8.190;2022-10-31T00:38:48;12.40;99.90
66013;DHT22;52783;50.502;8.190;2022-10-31T00:41:15;12.40;99.90
66013;DHT22;52783;50.502;8.190;2022-10-31T00:43:41;12.40;99.90
66013;DHT22;52783;50.502;8.190;2022-10-31T00:46:07;12.30;99.90
66013;DHT22;52783;50.502;8.190;2022-10-31T00:48:32;12.30;99.90
66013;DHT22;52783;50.502;8.190;2022-10-31T00:50:58;12.30;99.90
66013;DHT22;52783;50.502;8.190;2022-10-31T00:53:24;12.30;99.90
66013;DHT22;52783;50.502;8.190;2022-10-31T00:55:50;12.30;99.90
66013;DHT22;52783;50.502;8.190;2022-10-31T00:58:15;12.40;99.90
66013;DHT22;52783;50.502;8.190;2022-10-31T01:00:41;12.40;99.90
66013;DHT22;52783;50.502;8.190;2022-10-31T01:03:07;12.40;99.90
66013;DHT22;52783;50.502;8.190;2022-10-31T01:05:32;12.40;99.90
66013;DHT22;52783;50.502;8.190;2022-10-31T01:07:58;12.50;99.90
66013;DHT22;52783;50.502;8.190;2022-10-31T01:10:24;12.50;99.90
66013;DHT22;52783;50.502;8.190;2022-10-31T01:12:50;12.50;99.90
66013;DHT22;52783;50.502;8.190;2022-10-31T01:15:19;12.50;99.90
66013;DHT22;52783;50.502;8.190;2022-10-31T01:17:45;12.40;99.90
66013;DHT22;52783;50.502;8.190;2022-10-31T01:20:12;12.40;99.90
66013;DHT22;52783;50.502;8.190;2022-10-31T01:22:38;12.40;99.90
66013;DHT22;52783;50.502;8.190;2022-10-31T01:25:04;12.30;99.90
66013;DHT22;52783;50.502;8.190;2022-10-31T01:27:31;12.30;99.90
66013;DHT22;52783;50.502;8.190;2022-10-31T01:29:56;12.30;99.90
66013;DHT22;52783;50.502;8.190;2022-10-31T01:32:22;12.40;99.90
66013;DHT22;52783;50.502;8.190;2022-10-31T01:34:47;12.40;99.90
66013;DHT22;52783;50.502;8.190;2022-10-31T01:37:13;12.30;99.90
66013;DHT22;52783;50.502;8.190;2022-10-31T01:39:38;12.40;99.90
66013;DHT22;52783;50.502;8.190;2022-10-31T01:42:04;12.40;99.90
66013;DHT22;52783;50.502;8.190;2022-10-31T01:46:59;12.40;99.90
66013;DHT22;52783;50.502;8.190;2022-10-31T01:52:15;12.20;99.90
66013;DHT22;52783;50.502;8.190;2022-10-31T01:54:46;12.30;99.90
66013;DHT22;52783;50.502;8.190;2022-10-31T01:57:14;12.30;99.90
66013;DHT22;52783;50.502;8.190;2022-10-31T01:59:43;12.40;99.90
66013;DHT22;52783;50.502;8.190;2022-10-31T02:02:13;12.40;99.90
66013;DHT22;52783;50.502;8.190;2022-10-31T02:04:40;12.40;99.90
66013;DHT22;52783;50.502;8.190;2022-10-31T02:07:13;12.40;99.90
66013;DHT22;52783;50.502;8.190;2022-10-31T02:09:40;12.40;99.90
66013;DHT22;52783;50.502;8.190;2022-10-31T02:12:09;12.40;99.90
66013;DHT22;52783;50.502;8.190;2022-10-31T02:14:36;12.30;99.90
66013;DHT22;52783;50.502;8.190;2022-10-31T02:17:03;12.30;99.90
66013;DHT22;52783;50.502;8.190;2022-10-31T02:20:09;12.20;99.90
66013;DHT22;52783;50.502;8.190;2022-10-31T02:37:29;12.20;99.90
66013;DHT22;52783;50.502;8.190;2022-10-31T02:42:58;12.20;99.90
66013;DHT22;52783;50.502;8.190;2022-10-31T02:45:28;12.10;99.90
66013;DHT22;52783;50.502;8.190;2022-10-31T02:47:58;12.10;99.90
66013;DHT22;52783;50.502;8.190;2022-10-31T02:50:33;12.00;99.90
66013;DHT22;52783;50.502;8.190;2022-10-31T02:53:01;12.00;99.90
66013;DHT22;52783;50.502;8.190;2022-10-31T02:58:18;12.00;99.90
66013;DHT22;52783;50.502;8.190;2022-10-31T03:07:00;11.90;99.90
66013;DHT22;52783;50.502;8.190;2022-10-31T03:09:32;11.80;99.90
66013;DHT22;52783;50.502;8.190;2022-10-31T03:14:43;11.80;99.90
66013;DHT22;52783;50.502;8.190;2022-10-31T03:17:21;11.90;99.90
66013;DHT22;52783;50.502;8.190;2022-10-31T03:19:49;11.80;99.90
66013;DHT22;52783;50.502;8.190;2022-10-31T03:22:25;11.80;99.90
66013;DHT22;52783;50.502;8.190;2022-10-31T03:24:51;11.80;99.90
66013;DHT22;52783;50.502;8.190;2022-10-31T03:27:24;11.80;99.90
66013;DHT22;52783;50.502;8.190;2022-10-31T03:29:52;11.80;99.90
66013;DHT22;52783;50.502;8.190;2022-10-31T03:32:34;11.80;99.90
66013;DHT22;52783;50.502;8.190;2022-10-31T03:35:02;11.80;99.90
66013;DHT22;52783;50.502;8.190;2022-10-31T03:37:33;11.80;99.90
66013;DHT22;52783;50.502;8.190;2022-10-31T03:40:00;11.70;99.90
66013;DHT22;52783;50.502;8.190;2022-10-31T03:42:30;11.70;99.90
66013;DHT22;52783;50.502;8.190;2022-10-31T03:47:31;11.60;99.90
66013;DHT22;52783;50.502;8.190;2022-10-31T03:49:57;11.60;99.90
66013;DHT22;52783;50.502;8.190;2022-10-31T03:57:55;11.50;99.90
66013;DHT22;52783;50.502;8.190;2022-10-31T04:00:23;11.50;99.90
66013;DHT22;52783;50.502;8.190;2022-10-31T04:03:15;11.40;99.90
66013;DHT22;52783;50.502;8.190;2022-10-31T04:05:45;11.40;99.90
66013;DHT22;52783;50.502;8.190;2022-10-31T04:08:15;11.40;99.90
66013;DHT22;52783;50.502;8.190;2022-10-31T04:10:43;11.40;99.90
66013;DHT22;52783;50.502;8.190;2022-10-31T04:13:13;11.50;99.90
66013;DHT22;52783;50.502;8.190;2022-10-31T04:15:41;11.50;99.90
66013;DHT22;52783;50.502;8.190;2022-10-31T04:18:07;11.50;99.90
66013;DHT22;52783;50.502;8.190;2022-10-31T04:20:38;11.50;99.90
66013;DHT22;52783;50.502;8.190;2022-10-31T04:23:05;11.40;99.90
66013;DHT22;52783;50.502;8.190;2022-10-31T04:25:31;11.40;99.90
66013;DHT22;52783;50.502;8.190;2022-10-31T04:27:56;11.50;99.90
66013;DHT22;52783;50.502;8.190;2022-10-31T04:30:22;11.50;99.90
66013;DHT22;52783;50.502;8.190;2022-10-31T04:32:48;11.50;99.90
66013;DHT22;52783;50.502;8.190;2022-10-31T04:35:13;11.50;99.90
66013;DHT22;52783;50.502;8.190;2022-10-31T04:37:39;11.50;99.90
66013;DHT22;52783;50.502;8.190;2022-10-31T04:40:05;11.50;99.90
66013;DHT22;52783;50.502;8.190;2022-10-31T04:42:31;11.50;99.90
66013;DHT22;52783;50.502;8.190;2022-10-31T04:44:56;11.50;99.90
66013;DHT22;52783;50.502;8.190;2022-10-31T04:47:22;11.50;99.90
66013;DHT22;52783;50.502;8.190;2022-10-31T04:49:48;11.50;99.90
66013;DHT22;52783;50.502;8.190;2022-10-31T04:52:13;11.60;99.90
66013;DHT22;52783;50.502;8.190;2022-10-31T04:54:39;11.60;99.90
66013;DHT22;52783;50.502;8.190;2022-10-31T04:57:04;11.60;99.90
66013;DHT22;52783;50.502;8.190;2022-10-31T04:59:30;11.50;99.90
66013;DHT22;52783;50.502;8.190;2022-10-31T05:01:55;11.50;99.90
66013;DHT22;52783;50.502;8.190;2022-10-31T05:04:21;11.50;99.90
66013;DHT22;52783;50.502;8.190;2022-10-31T05:06:47;11.50;99.90
66013;DHT22;52783;50.502;8.190;2022-10-31T05:09:12;11.50;99.90
66013;DHT22;52783;50.502;8.190;2022-10-31T05:11:38;11.50;99.90
66013;DHT22;52783;50.502;8.190;2022-10-31T05:14:03;11.50;99.90
66013;DHT22;52783;50.502;8.190;2022-10-31T05:16:29;11.50;99.90
66013;DHT22;52783;50.502;8.190;2022-10-31T05:18:54;11.50;99.90
66013;DHT22;52783;50.502;8.190;2022-10-31T05:21:20;11.50;99.90
66013;DHT22;52783;50.502;8.190;2022-10-31T05:23:46;11.50;99.90
66013;DHT22;52783;50.502;8.190;2022-10-31T05:26:11;11.40;99.90
66013;DHT22;52783;50.502;8.190;2022-10-31T05:28:37;11.40;99.90
66013;DHT22;52783;50.502;8.190;2022-10-31T05:31:02;11.20;99.90
66013;DHT22;52783;50.502;8.190;2022-10-31T05:33:28;10.90;99.90
66013;DHT22;52783;50.502;8.190;2022-10-31T05:35:54;10.90;99.90
66013;DHT22;52783;50.502;8.190;2022-10-31T05:38:19;10.90;99.90
66013;DHT22;52783;50.502;8.190;2022-10-31T05:40:45;11.00;99.90
66013;DHT22;52783;50.502;8.190;2022-10-31T05:43:10;11.20;99.90
66013;DHT22;52783;50.502;8.190;2022-10-31T05:45:36;11.20;99.90
66013;DHT22;52783;50.502;8.190;2022-10-31T05:48:02;11.10;99.90
66013;DHT22;52783;50.502;8.190;2022-10-31T05:50:30;11.10;99.90
66013;DHT22;52783;50.502;8.190;2022-10-31T05:53:04;11.00;99.90
66013;DHT22;52783;50.502;8.190;2022-10-31T05:55:30;10.90;99.90
66013;DHT22;52783;50.502;8.190;2022-10-31T05:57:56;11.00;99.90
66013;DHT22;52783;50.502;8.190;2022-10-31T06:00:23;10.90;99.90
66013;DHT22;52783;50.502;8.190;2022-10-31T06:02:49;10.90;99.90
66013;DHT22;52783;50.502;8.190;2022-10-31T06:05:15;10.90;99.90
66013;DHT22;52783;50.502;8.190;2022-10-31T06:07:41;10.90;99.90
66013;DHT22;52783;50.502;8.190;2022-10-31T06:10:08;10.80;99.90
66013;DHT22;52783;50.502;8.190;2022-10-31T06:12:35;10.80;99.90
66013;DHT22;52783;50.502;8.190;2022-10-31T06:15:07;10.70;99.90
66013;DHT22;52783;50.502;8.190;2022-10-31T06:17:34;10.70;99.90
66013;DHT22;52783;50.502;8.190;2022-10-31T06:20:00;10.70;99.90
66013;DHT22;52783;50.502;8.190;2022-10-31T06:22:26;10.70;99.90
66013;DHT22;52783;50.502;8.190;2022-10-31T06:24:52;10.70;99.90
66013;DHT22;52783;50.502;8.190;2022-10-31T06:27:17;10.70;99.90
66013;DHT22;52783;50.502;8.190;2022-10-31T06:29:43;10.70;99.90
66013;DHT22;52783;50.502;8.190;2022-10-31T06:32:11;10.70;99.90
66013;DHT22;52783;50.502;8.190;2022-10-31T06:34:38;10.70;99.90
66013;DHT22;52783;50.502;8.190;2022-10-31T06:37:05;10.80;99.90
66013;DHT22;52783;50.502;8.190;2022-10-31T06:39:30;10.60;99.90
66013;DHT22;52783;50.502;8.190;2022-10-31T06:41:56;10.50;99.90
66013;DHT22;52783;50.502;8.190;2022-10-31T06:44:21;10.40;99.90
66013;DHT22;52783;50.502;8.190;2022-10-31T06:46:47;10.30;99.90
66013;DHT22;52783;50.502;8.190;2022-10-31T06:49:13;10.40;99.90
66013;DHT22;52783;50.502;8.190;2022-10-31T06:51:38;10.40;99.90
66013;DHT22;52783;50.502;8.190;2022-10-31T06:54:04;10.40;99.90
66013;DHT22;52783;50.502;8.190;2022-10-31T06:56:31;10.40;99.90
66013;DHT22;52783;50.502;8.190;2022-10-31T06:58:58;10.40;99.90
66013;DHT22;52783;50.502;8.190;2022-10-31T07:01:23;10.60;99.90
66013;DHT22;52783;50.502;8.190;2022-10-31T07:03:49;10.60;99.90
66013;DHT22;52783;50.502;8.190;2022-10-31T07:06:15;10.70;99.90
66013;DHT22;52783;50.502;8.190;2022-10-31T07:08:41;10.70;99.90
66013;DHT22;52783;50.502;8.190;2022-10-31T07:11:07;10.70;99.90
66013;DHT22;52783;50.502;8.190;2022-10-31T07:13:33;10.80;99.90
66013;DHT22;52783;50.502;8.190;2022-10-31T07:16:01;10.80;99.90
66013;DHT22;52783;50.502;8.190;2022-10-31T07:18:27;10.90;99.90
66013;DHT22;52783;50.502;8.190;2022-10-31T07:20:53;10.90;99.90
66013;DHT22;52783;50.502;8.190;2022-10-31T07:23:19;10.90;99.90
66013;DHT22;52783;50.502;8.190;2022-10-31T07:25:45;10.80;99.90
66013;DHT22;52783;50.502;8.190;2022-10-31T07:28:14;10.60;99.90
66013;DHT22;52783;50.502;8.190;2022-10-31T07:30:53;10.40;99.90
66013;DHT22;52783;50.502;8.190;2022-10-31T07:33:19;10.20;99.90
66013;DHT22;52783;50.502;8.190;2022-10-31T07:35:45;10.20;99.90
66013;DHT22;52783;50.502;8.190;2022-10-31T07:38:15;10.30;99.90
66013;DHT22;52783;50.502;8.190;2022-10-31T07:40:42;10.40;99.90
66013;DHT22;52783;50.502;8.190;2022-10-31T07:43:11;10.60;99.90
66013;DHT22;52783;50.502;8.190;2022-10-31T07:45:53;10.80;99.90
66013;DHT22;52783;50.502;8.190;2022-10-31T07:48:25;11.00;99.90
66013;DHT22;52783;50.502;8.190;2022-10-31T07:50:50;11.30;99.90
66013;DHT22;52783;50.502;8.190;2022-10-31T07:53:16;11.40;99.90
66013;DHT22;52783;50.502;8.190;2022-10-31T07:55:42;11.60;99.90
66013;DHT22;52783;50.502;8.190;2022-10-31T07:58:16;11.70;99.90
66013;DHT22;52783;50.502;8.190;2022-10-31T08:00:44;11.90;99.90
66013;DHT22;52783;50.502;8.190;2022-10-31T08:03:12;11.90;99.90
66013;DHT22;52783;50.502;8.190;2022-10-31T08:05:38;11.90;99.90
66013;DHT22;52783;50.502;8.190;2022-10-31T08:10:41;12.20;99.90
66013;DHT22;52783;50.502;8.190;2022-10-31T08:13:10;12.50;99.90
66013;DHT22;52783;50.502;8.190;2022-10-31T08:15:35;12.60;99.90
66013;DHT22;52783;50.502;8.190;2022-10-31T08:18:14;12.70;99.90
66013;DHT22;52783;50.502;8.190;2022-10-31T08:20:41;12.90;99.90
66013;DHT22;52783;50.502;8.190;2022-10-31T08:23:08;13.20;99.90
66013;DHT22;52783;50.502;8.190;2022-10-31T08:25:34;13.40;99.90
66013;DHT22;52783;50.502;8.190;2022-10-31T08:28:00;13.40;99.90
66013;DHT22;52783;50.502;8.190;2022-10-31T08:30:28;13.40;99.90
66013;DHT22;52783;50.502;8.190;2022-10-31T08:35:31;13.50;99.90
66013;DHT22;52783;50.502;8.190;2022-10-31T08:37:57;13.60;99.90
66013;DHT22;52783;50.502;8.190;2022-10-31T08:40:24;13.70;99.90
66013;DHT22;52783;50.502;8.190;2022-10-31T08:43:04;13.70;99.90
66013;DHT22;52783;50.502;8.190;2022-10-31T08:45:31;14.00;99.90
66013;DHT22;52783;50.502;8.190;2022-10-31T08:47:58;14.20;99.90
66013;DHT22;52783;50.502;8.190;2022-10-31T08:50:25;14.40;99.90
66013;DHT22;52783;50.502;8.190;2022-10-31T08:52:50;14.50;99.90
66013;DHT22;52783;50.502;8.190;2022-10-31T08:55:16;14.70;99.90
66013;DHT22;52783;50.502;8.190;2022-10-31T08:57:41;14.80;99.90
66013;DHT22;52783;50.502;8.190;2022-10-31T09:00:07;14.90;99.90
66013;DHT22;52783;50.502;8.190;2022-10-31T09:02:33;14.90;99.90
66013;DHT22;52783;50.502;8.190;2022-10-31T09:04:59;15.10;99.90
66013;DHT22;52783;50.502;8.190;2022-10-31T09:07:24;15.00;99.90
66013;DHT22;52783;50.502;8.190;2022-10-31T09:09:50;15.00;99.90
66013;DHT22;52783;50.502;8.190;2022-10-31T09:12:15;15.00;99.90
66013;DHT22;52783;50.502;8.190;2022-10-31T09:14:41;14.90;99.90
66013;DHT22;52783;50.502;8.190;2022-10-31T09:17:06;14.90;99.90
66013;DHT22;52783;50.502;8.190;2022-10-31T09:19:32;14.90;99.90
66013;DHT22;52783;50.502;8.190;2022-10-31T09:21:57;14.90;99.90
66013;DHT22;52783;50.502;8.190;2022-10-31T09:24:23;15.00;99.90
66013;DHT22;52783;50.502;8.190;2022-10-31T09:26:48;15.00;99.90
66013;DHT22;52783;50.502;8.190;2022-10-31T09:29:14;15.10;99.90
66013;DHT22;52783;50.502;8.190;2022-10-31T09:31:40;15.10;99.90
66013;DHT22;52783;50.502;8.190;2022-10-31T09:34:05;15.10;99.90
66013;DHT22;52783;50.502;8.190;2022-10-31T09:36:31;15.20;99.90
66013;DHT22;52783;50.502;8.190;2022-10-31T09:38:56;15.20;99.90
66013;DHT22;52783;50.502;8.190;2022-10-31T09:44:28;15.60;99.90
66013;DHT22;52783;50.502;8.190;2022-10-31T09:47:10;15.50;99.90
66013;DHT22;52783;50.502;8.190;2022-10-31T09:50:17;15.60;99.90
66013;DHT22;52783;50.502;8.190;2022-10-31T09:53:10;15.70;99.90
66013;DHT22;52783;50.502;8.190;2022-10-31T09:55:40;15.70;99.90
66013;DHT22;52783;50.502;8.190;2022-10-31T09:58:26;15.70;99.90
66013;DHT22;52783;50.502;8.190;2022-10-31T10:00:55;15.90;99.90
66013;DHT22;52783;50.502;8.190;2022-10-31T10:03:38;16.00;99.90
66013;DHT22;52783;50.502;8.190;2022-10-31T10:06:15;16.10;99.90
66013;DHT22;52783;50.502;8.190;2022-10-31T10:08:41;16.10;99.90
66013;DHT22;52783;50.502;8.190;2022-10-31T10:25:20;16.40;99.90
66013;DHT22;52783;50.502;8.190;2022-10-31T10:30:43;16.40;99.90
66013;DHT22;52783;50.502;8.190;2022-10-31T10:33:22;16.50;99.90
66013;DHT22;52783;50.502;8.190;2022-10-31T10:36:17;16.60;99.90
66013;DHT22;52783;50.502;8.190;2022-10-31T10:38:58;16.50;99.90
66013;DHT22;52783;50.502;8.190;2022-10-31T10:41:30;16.50;99.10
66013;DHT22;52783;50.502;8.190;2022-10-31T10:43:56;16.60;99.90
66013;DHT22;52783;50.502;8.190;2022-10-31T10:49:16;16.60;98.50
66013;DHT22;52783;50.502;8.190;2022-10-31T10:59:47;16.50;99.90
66013;DHT22;52783;50.502;8.190;2022-10-31T11:02:18;16.50;99.60
66013;DHT22;52783;50.502;8.190;2022-10-31T11:04:45;16.50;99.90
66013;DHT22;52783;50.502;8.190;2022-10-31T11:07:12;16.60;99.20
66013;DHT22;52783;50.502;8.190;2022-10-31T11:09:38;16.50;99.30
66013;DHT22;52783;50.502;8.190;2022-10-31T11:12:30;16.60;99.30
66013;DHT22;52783;50.502;8.190;2022-10-31T11:14:58;16.70;99.10
66013;DHT22;52783;50.502;8.190;2022-10-31T11:17:32;16.80;98.90
66013;DHT22;52783;50.502;8.190;2022-10-31T11:22:30;16.80;98.90
66013;DHT22;52783;50.502;8.190;2022-10-31T11:24:55;16.70;98.90
66013;DHT22;52783;50.502;8.190;2022-10-31T11:27:24;16.70;98.70
66013;DHT22;52783;50.502;8.190;2022-10-31T11:29:50;16.70;99.10
66013;DHT22;52783;50.502;8.190;2022-10-31T11:32:22;16.60;98.60
66013;DHT22;52783;50.502;8.190;2022-10-31T11:34:59;16.90;99.10
66013;DHT22;52783;50.502;8.190;2022-10-31T11:37:27;17.10;98.20
66013;DHT22;52783;50.502;8.190;2022-10-31T11:39:57;16.90;98.10
66013;DHT22;52783;50.502;8.190;2022-10-31T11:42:26;16.80;97.60
66013;DHT22;52783;50.502;8.190;2022-10-31T11:44:54;17.00;97.80
66013;DHT22;52783;50.502;8.190;2022-10-31T11:47:28;17.00;98.00
66013;DHT22;52783;50.502;8.190;2022-10-31T11:49:55;17.00;97.60
66013;DHT22;52783;50.502;8.190;2022-10-31T11:52:27;17.10;96.80
66013;DHT22;52783;50.502;8.190;2022-10-31T11:54:55;17.00;97.10
66013;DHT22;52783;50.502;8.190;2022-10-31T12:21:00;17.50;95.60
66013;DHT22;52783;50.502;8.190;2022-10-31T12:26:33;17.60;95.70
66013;DHT22;52783;50.502;8.190;2022-10-31T12:29:06;17.40;96.20
66013;DHT22;52783;50.502;8.190;2022-10-31T12:51:23;17.40;95.00
66013;DHT22;52783;50.502;8.190;2022-10-31T12:57:01;17.90;95.30
66013;DHT22;52783;50.502;8.190;2022-10-31T12:59:32;18.00;95.00
66013;DHT22;52783;50.502;8.190;2022-10-31T13:04:49;18.00;94.60
66013;DHT22;52783;50.502;8.190;2022-10-31T13:07:21;18.10;94.20
66013;DHT22;52783;50.502;8.190;2022-10-31T13:12:24;17.80;94.20
66013;DHT22;52783;50.502;8.190;2022-10-31T13:14:57;17.80;94.50
66013;DHT22;52783;50.502;8.190;2022-10-31T13:17:31;18.00;94.80
66013;DHT22;52783;50.502;8.190;2022-10-31T13:20:13;18.00;94.70
66013;DHT22;52783;50.502;8.190;2022-10-31T13:22:44;18.10;94.70
66013;DHT22;52783;50.502;8.190;2022-10-31T13:25:30;18.30;94.60
66013;DHT22;52783;50.502;8.190;2022-10-31T13:28:03;18.10;94.20
66013;DHT22;52783;50.502;8.190;2022-10-31T13:30:33;17.90;93.80
66013;DHT22;52783;50.502;8.190;2022-10-31T13:33:09;18.20;94.60
66013;DHT22;52783;50.502;8.190;2022-10-31T13:35:43;18.20;93.60
66013;DHT22;52783;50.502;8.190;2022-10-31T13:44:03;18.20;94.20
66013;DHT22;52783;50.502;8.190;2022-10-31T13:48:58;17.90;94.70
66013;DHT22;52783;50.502;8.190;2022-10-31T13:51:29;17.80;95.50
66013;DHT22;52783;50.502;8.190;2022-10-31T13:56:29;17.60;95.70
66013;DHT22;52783;50.502;8.190;2022-10-31T14:01:59;17.50;96.40
66013;DHT22;52783;50.502;8.190;2022-10-31T14:04:36;17.50;96.30
66013;DHT22;52783;50.502;8.190;2022-10-31T14:07:11;17.50;96.70
66013;DHT22;52783;50.502;8.190;2022-10-31T14:12:08;17.70;96.10
66013;DHT22;52783;50.502;8.190;2022-10-31T14:14:50;17.70;95.90
66013;DHT22;52783;50.502;8.190;2022-10-31T14:17:20;17.70;95.40
66013;DHT22;52783;50.502;8.190;2022-10-31T14:22:42;17.60;95.10
66013;DHT22;52783;50.502;8.190;2022-10-31T14:25:32;17.70;94.90
66013;DHT22;52783;50.502;8.190;2022-10-31T14:28:00;17.70;95.40
66013;DHT22;52783;50.502;8.190;2022-10-31T14:30:27;17.70;95.60
66013;DHT22;52783;50.502;8.190;2022-10-31T14:33:18;17.60;95.50
66013;DHT22;52783;50.502;8.190;2022-10-31T14:36:00;17.60;95.90
66013;DHT22;52783;50.502;8.190;2022-10-31T14:46:56;17.40;95.50
66013;DHT22;52783;50.502;8.190;2022-10-31T14:52:01;17.50;94.90
66013;DHT22;52783;50.502;8.190;2022-10-31T14:54:37;17.40;95.40
66013;DHT22;52783;50.502;8.190;2022-10-31T14:57:13;17.10;95.10
66013;DHT22;52783;50.502;8.190;2022-10-31T14:59:48;17.10;95.60
66013;DHT22;52783;50.502;8.190;2022-10-31T15:02:31;17.10;96.30
66013;DHT22;52783;50.502;8.190;2022-10-31T15:05:06;17.20;96.70
66013;DHT22;52783;50.502;8.190;2022-10-31T15:07:32;17.20;96.60
66013;DHT22;52783;50.502;8.190;2022-10-31T15:10:05;17.20;96.50
66013;DHT22;52783;50.502;8.190;2022-10-31T15:12:35;17.20;96.30
66013;DHT22;52783;50.502;8.190;2022-10-31T15:15:23;17.10;96.90
66013;DHT22;52783;50.502;8.190;2022-10-31T15:17:58;17.10;97.30
66013;DHT22;52783;50.502;8.190;2022-10-31T15:20:41;17.10;97.40
66013;DHT22;52783;50.502;8.190;2022-10-31T15:23:11;17.10;97.50
66013;DHT22;52783;50.502;8.190;2022-10-31T15:25:39;17.10;97.80
66013;DHT22;52783;50.502;8.190;2022-10-31T15:28:20;17.00;97.90
66013;DHT22;52783;50.502;8.190;2022-10-31T15:30:51;17.00;97.90
66013;DHT22;52783;50.502;8.190;2022-10-31T15:33:28;17.00;97.90
66013;DHT22;52783;50.502;8.190;2022-10-31T15:35:56;17.00;98.10
66013;DHT22;52783;50.502;8.190;2022-10-31T15:38:23;17.00;98.60
66013;DHT22;52783;50.502;8.190;2022-10-31T15:40:58;17.00;98.60
66013;DHT22;52783;50.502;8.190;2022-10-31T15:43:25;17.00;98.70
66013;DHT22;52783;50.502;8.190;2022-10-31T15:45:52;16.70;98.90
66013;DHT22;52783;50.502;8.190;2022-10-31T15:48:22;16.70;99.40
66013;DHT22;52783;50.502;8.190;2022-10-31T15:50:51;16.70;99.60
66013;DHT22;52783;50.502;8.190;2022-10-31T15:53:30;16.60;99.90
66013;DHT22;52783;50.502;8.190;2022-10-31T15:56:02;16.50;99.90
66013;DHT22;52783;50.502;8.190;2022-10-31T15:58:30;16.40;99.90
66013;DHT22;52783;50.502;8.190;2022-10-31T16:01:03;16.40;99.90
66013;DHT22;52783;50.502;8.190;2022-10-31T16:03:31;16.30;99.90
66013;DHT22;52783;50.502;8.190;2022-10-31T16:06:02;16.20;99.90
66013;DHT22;52783;50.502;8.190;2022-10-31T16:10:59;16.00;99.90
66013;DHT22;52783;50.502;8.190;2022-10-31T16:13:30;16.00;99.90
66013;DHT22;52783;50.502;8.190;2022-10-31T16:16:02;15.90;99.90
66013;DHT22;52783;50.502;8.190;2022-10-31T16:18:30;15.70;99.90
66013;DHT22;52783;50.502;8.190;2022-10-31T16:21:00;15.70;99.90
66013;DHT22;52783;50.502;8.190;2022-10-31T16:23:26;15.60;99.90
66013;DHT22;52783;50.502;8.190;2022-10-31T16:25:53;15.60;99.90
66013;DHT22;52783;50.502;8.190;2022-10-31T16:28:24;15.40;99.90
66013;DHT22;52783;50.502;8.190;2022-10-31T16:30:52;15.40;99.90
66013;DHT22;52783;50.502;8.190;2022-10-31T16:33:27;15.30;99.90
66013;DHT22;52783;50.502;8.190;2022-10-31T16:35:54;15.30;99.90
66013;DHT22;52783;50.502;8.190;2022-10-31T16:38:20;15.30;99.90
66013;DHT22;52783;50.502;8.190;2022-10-31T16:40:46;15.10;99.90
66013;DHT22;52783;50.502;8.190;2022-10-31T16:43:13;15.30;99.90
66013;DHT22;52783;50.502;8.190;2022-10-31T16:45:45;15.30;99.90
66013;DHT22;52783;50.502;8.190;2022-10-31T16:48:13;15.30;99.90
66013;DHT22;52783;50.502;8.190;2022-10-31T16:50:41;15.30;99.90
66013;DHT22;52783;50.502;8.190;2022-10-31T16:53:07;15.30;99.90
66013;DHT22;52783;50.502;8.190;2022-10-31T16:55:33;15.40;99.90
66013;DHT22;52783;50.502;8.190;2022-10-31T16:58:00;15.40;99.90
66013;DHT22;52783;50.502;8.190;2022-10-31T17:00:27;15.40;99.90
66013;DHT22;52783;50.502;8.190;2022-10-31T17:02:55;15.40;99.90
66013;DHT22;52783;50.502;8.190;2022-10-31T17:05:24;15.60;99.90
66013;DHT22;52783;50.502;8.190;2022-10-31T17:07:55;15.60;99.90
66013;DHT22;52783;50.502;8.190;2022-10-31T17:10:21;15.60;99.90
66013;DHT22;52783;50.502;8.190;2022-10-31T17:12:48;15.60;99.90
66013;DHT22;52783;50.502;8.190;2022-10-31T17:15:18;15.60;99.90
66013;DHT22;52783;50.502;8.190;2022-10-31T17:17:44;15.50;99.90
66013;DHT22;52783;50.502;8.190;2022-10-31T17:20:22;15.50;99.90
66013;DHT22;52783;50.502;8.190;2022-10-31T17:22:48;15.50;99.90
66013;DHT22;52783;50.502;8.190;2022-10-31T17:25:16;15.50;99.90
66013;DHT22;52783;50.502;8.190;2022-10-31T17:27:42;15.50;99.90
66013;DHT22;52783;50.502;8.190;2022-10-31T17:30:10;15.60;99.90
66013;DHT22;52783;50.502;8.190;2022-10-31T17:32:36;15.50;99.90
66013;DHT22;52783;50.502;8.190;2022-10-31T17:35:01;15.50;99.90
66013;DHT22;52783;50.502;8.190;2022-10-31T17:37:27;15.60;99.90
66013;DHT22;52783;50.502;8.190;2022-10-31T17:39:52;15.60;99.90
66013;DHT22;52783;50.502;8.190;2022-10-31T17:42:18;15.60;99.90
66013;DHT22;52783;50.502;8.190;2022-10-31T17:44:44;15.60;99.90
66013;DHT22;52783;50.502;8.190;2022-10-31T17:47:09;15.60;99.90
66013;DHT22;52783;50.502;8.190;2022-10-31T17:49:35;15.70;99.90
66013;DHT22;52783;50.502;8.190;2022-10-31T17:52:00;15.70;99.90
66013;DHT22;52783;50.502;8.190;2022-10-31T17:54:26;15.70;99.90
66013;DHT22;52783;50.502;8.190;2022-10-31T17:56:52;15.70;99.90
66013;DHT22;52783;50.502;8.190;2022-10-31T17:59:18;15.80;99.90
66013;DHT22;52783;50.502;8.190;2022-10-31T18:01:44;15.80;99.90
66013;DHT22;52783;50.502;8.190;2022-10-31T18:04:09;15.70;99.90
66013;DHT22;52783;50.502;8.190;2022-10-31T18:06:35;15.60;99.90
66013;DHT22;52783;50.502;8.190;2022-10-31T18:09:03;15.50;99.90
66013;DHT22;52783;50.502;8.190;2022-10-31T18:11:29;15.40;99.90
66013;DHT22;52783;50.502;8.190;2022-10-31T18:13:56;15.40;99.90
66013;DHT22;52783;50.502;8.190;2022-10-31T18:16:22;15.40;99.90
66013;DHT22;52783;50.502;8.190;2022-10-31T18:18:52;15.30;99.90
66013;DHT22;52783;50.502;8.190;2022-10-31T18:21:19;15.20;99.90
66013;DHT22;52783;50.502;8.190;2022-10-31T18:23:45;15.10;99.90
66013;DHT22;52783;50.502;8.190;2022-10-31T18:26:11;14.90;99.90
66013;DHT22;52783;50.502;8.190;2022-10-31T18:28:37;14.90;99.90
66013;DHT22;52783;50.502;8.190;2022-10-31T18:31:03;14.90;99.90